createdAt,value
2023-04-16T00:00:42.609Z,849.15
2023-04-16T00:01:42.641Z,849.18
2023-04-16T00:02:42.750Z,849.14
2023-04-16T00:03:42.791Z,849.14
2023-04-16T00:04:42.747Z,849.10
2023-04-16T00:05:42.553Z,849.11
2023-04-16T00:06:42.617Z,849.13
2023-04-16T00:07:42.556Z,849.14
2023-04-16T00:08:42.537Z,849.12
2023-04-16T00:09:42.504Z,849.08
2023-04-16T00:10:42.546Z,849.05
2023-04-16T00:11:42.517Z,849.05
2023-04-16T00:12:42.465Z,849.04
2023-04-16T00:13:42.460Z,849.05
2023-04-16T00:14:42.444Z,849.03
2023-04-16T00:15:42.460Z,849.10
2023-04-16T00:16:42.522Z,849.10
2023-04-16T00:17:42.491Z,849.10
2023-04-16T00:18:42.404Z,849.12
2023-04-16T00:19:42.392Z,849.07
2023-04-16T00:20:42.387Z,849.10
2023-04-16T00:21:42.383Z,849.05
2023-04-16T00:22:42.416Z,849.09
2023-04-16T00:23:42.347Z,849.06
2023-04-16T00:24:42.350Z,849.07
2023-04-16T00:25:42.331Z,849.06
2023-04-16T00:26:42.326Z,849.08
2023-04-16T00:27:42.357Z,849.11
2023-04-16T00:28:42.336Z,849.11
2023-04-16T00:29:42.297Z,849.09
2023-04-16T00:30:42.307Z,849.10
2023-04-16T00:31:42.270Z,849.14
2023-04-16T00:32:42.313Z,849.08
2023-04-16T00:33:42.261Z,849.09
2023-04-16T00:34:42.255Z,849.14
2023-04-16T00:35:42.221Z,849.10
2023-04-16T00:36:42.218Z,849.13
2023-04-16T00:37:42.200Z,849.12
2023-04-16T00:38:42.228Z,849.11
2023-04-16T00:39:42.181Z,849.13
2023-04-16T00:40:42.190Z,849.11
2023-04-16T00:41:42.162Z,849.13
2023-04-16T00:42:42.159Z,849.03
2023-04-16T00:43:42.154Z,849.07
2023-04-16T00:44:42.142Z,849.07
2023-04-16T00:45:42.113Z,849.07
2023-04-16T00:46:42.189Z,849.08
2023-04-16T00:47:42.133Z,849.07
2023-04-16T00:48:42.095Z,849.14
2023-04-16T00:49:42.074Z,849.14
2023-04-16T00:50:42.073Z,849.14
2023-04-16T00:51:42.051Z,849.15
2023-04-16T00:52:42.075Z,849.19
2023-04-16T00:53:42.040Z,849.12
2023-04-16T00:54:42.020Z,849.11
2023-04-16T00:55:42.021Z,849.13
2023-04-16T00:56:41.998Z,849.09
2023-04-16T00:57:41.987Z,849.10
2023-04-16T00:58:42.011Z,849.03
2023-04-16T00:59:42.123Z,849.14
2023-04-16T01:00:41.962Z,849.12
2023-04-16T01:01:42.010Z,849.10
2023-04-16T01:02:42.052Z,849.13
2023-04-16T01:03:42.093Z,849.07
2023-04-16T01:04:41.946Z,849.09
2023-04-16T01:05:41.901Z,849.07
2023-04-16T01:06:41.897Z,849.08
2023-04-16T01:07:41.904Z,849.02
2023-04-16T01:08:41.887Z,849.03
2023-04-16T01:09:41.860Z,849.07
2023-04-16T01:10:41.900Z,849.07
2023-04-16T01:11:41.862Z,849.08
2023-04-16T01:12:41.829Z,849.10
2023-04-16T01:13:41.831Z,849.05
2023-04-16T01:14:41.818Z,849.07
2023-04-16T01:15:41.872Z,849.07
2023-04-16T01:16:41.835Z,849.06
2023-04-16T01:17:41.822Z,849.03
2023-04-16T01:18:41.778Z,849.06
2023-04-16T01:19:41.770Z,849.05
2023-04-16T01:20:41.767Z,849.12
2023-04-16T01:21:41.735Z,849.06
2023-04-16T01:22:41.756Z,849.10
2023-04-16T01:23:41.725Z,849.09
2023-04-16T01:24:41.722Z,849.11
2023-04-16T01:25:41.693Z,849.08
2023-04-16T01:26:41.687Z,849.09
2023-04-16T01:27:41.680Z,849.08
2023-04-16T01:28:41.722Z,849.05
2023-04-16T01:29:41.654Z,849.07
2023-04-16T01:30:41.707Z,849.13
2023-04-16T01:31:41.728Z,849.12
2023-04-16T01:32:41.641Z,849.14
2023-04-16T01:33:41.645Z,849.14
2023-04-16T01:34:41.641Z,849.16
2023-04-16T01:35:41.593Z,849.14
2023-04-16T01:36:41.581Z,849.23
2023-04-16T01:37:41.567Z,849.19
2023-04-16T01:38:41.560Z,849.23
2023-04-16T01:39:41.561Z,849.23
2023-04-16T01:40:41.560Z,849.18
2023-04-16T01:41:41.523Z,849.23
2023-04-16T01:42:41.519Z,849.23
2023-04-16T01:43:41.531Z,849.24
2023-04-16T01:44:41.496Z,849.21
2023-04-16T01:45:41.489Z,849.23
2023-04-16T01:46:41.540Z,849.26
2023-04-16T01:47:41.516Z,849.21
2023-04-16T01:48:41.456Z,849.25
2023-04-16T01:49:41.458Z,849.22
2023-04-16T01:50:41.473Z,849.22
2023-04-16T01:51:41.419Z,849.24
2023-04-16T01:52:41.449Z,849.20
2023-04-16T01:53:41.395Z,849.19
2023-04-16T01:54:41.391Z,849.21
2023-04-16T01:55:41.387Z,849.21
2023-04-16T01:56:41.366Z,849.22
2023-04-16T01:57:41.356Z,849.30
2023-04-16T01:58:41.386Z,849.29
2023-04-16T01:59:41.335Z,849.25
2023-04-16T02:00:41.384Z,849.24
2023-04-16T02:01:41.330Z,849.26
2023-04-16T02:02:41.532Z,849.21
2023-04-16T02:03:41.495Z,849.23
2023-04-16T02:04:41.333Z,849.25
2023-04-16T02:05:41.270Z,849.32
2023-04-16T02:06:41.262Z,849.28
2023-04-16T02:07:41.265Z,849.26
2023-04-16T02:08:41.248Z,849.27
2023-04-16T02:09:41.238Z,849.23
2023-04-16T02:10:41.264Z,849.17
2023-04-16T02:11:41.214Z,849.15
2023-04-16T02:12:41.201Z,849.20
2023-04-16T02:13:41.200Z,849.24
2023-04-16T02:14:41.180Z,849.25
2023-04-16T02:15:41.177Z,849.28
2023-04-16T02:16:41.254Z,849.23
2023-04-16T02:17:41.185Z,849.22
2023-04-16T02:18:41.140Z,849.24
2023-04-16T02:19:41.148Z,849.23
2023-04-16T02:20:41.114Z,849.20
2023-04-16T02:21:41.098Z,849.21
2023-04-16T02:22:41.147Z,849.15
2023-04-16T02:23:41.111Z,849.17
2023-04-16T02:24:41.078Z,849.23
2023-04-16T02:25:41.056Z,849.24
2023-04-16T02:26:41.045Z,849.23
2023-04-16T02:27:41.032Z,849.26
2023-04-16T02:28:41.066Z,849.27
2023-04-16T02:29:41.016Z,849.25
2023-04-16T02:30:41.024Z,849.22
2023-04-16T02:31:41.040Z,849.23
2023-04-16T02:32:41.038Z,849.27
2023-04-16T02:33:40.966Z,849.23
2023-04-16T02:34:40.988Z,849.26
2023-04-16T02:35:40.969Z,849.27
2023-04-16T02:36:40.940Z,849.30
2023-04-16T02:37:40.937Z,849.28
2023-04-16T02:38:40.944Z,849.30
2023-04-16T02:39:40.913Z,849.29
2023-04-16T02:40:40.923Z,849.33
2023-04-16T02:41:40.883Z,849.31
2023-04-16T02:42:40.880Z,849.31
2023-04-16T02:43:40.870Z,849.25
2023-04-16T02:44:40.904Z,849.28
2023-04-16T02:45:40.870Z,849.26
2023-04-16T02:46:40.866Z,849.33
2023-04-16T02:47:40.869Z,849.31
2023-04-16T02:48:40.812Z,849.32
2023-04-16T02:49:40.803Z,849.33
2023-04-16T02:50:40.803Z,849.30
2023-04-16T02:51:40.798Z,849.27
2023-04-16T02:52:40.794Z,849.26
2023-04-16T02:53:40.768Z,849.29
2023-04-16T02:54:40.751Z,849.28
2023-04-16T02:55:40.745Z,849.26
2023-04-16T02:56:40.729Z,849.33
2023-04-16T02:57:40.722Z,849.33
2023-04-16T02:58:40.752Z,849.31
2023-04-16T02:59:40.692Z,849.32
2023-04-16T03:00:40.682Z,849.27
2023-04-16T03:01:40.715Z,849.26
2023-04-16T03:02:40.782Z,849.25
2023-04-16T03:03:40.647Z,849.28
2023-04-16T03:04:40.809Z,849.31
2023-04-16T03:05:40.642Z,849.31
2023-04-16T03:06:40.620Z,849.27
2023-04-16T03:07:40.654Z,849.28
2023-04-16T03:08:40.601Z,849.28
2023-04-16T03:09:40.587Z,849.31
2023-04-16T03:10:40.604Z,849.33
2023-04-16T03:11:40.586Z,849.29
2023-04-16T03:12:40.567Z,849.31
2023-04-16T03:13:40.543Z,849.29
2023-04-16T03:14:40.536Z,849.29
2023-04-16T03:15:40.589Z,849.31
2023-04-16T03:16:40.559Z,849.34
2023-04-16T03:17:40.547Z,849.36
2023-04-16T03:18:40.490Z,849.38
2023-04-16T03:19:40.484Z,849.42
2023-04-16T03:20:40.480Z,849.33
2023-04-16T03:21:40.461Z,849.36
2023-04-16T03:22:40.486Z,849.38
2023-04-16T03:23:40.506Z,849.38
2023-04-16T03:24:40.430Z,849.47
2023-04-16T03:25:40.433Z,849.39
2023-04-16T03:26:40.412Z,849.37
2023-04-16T03:27:40.398Z,849.47
2023-04-16T03:28:40.408Z,849.43
2023-04-16T03:29:40.387Z,849.44
2023-04-16T03:30:40.373Z,849.43
2023-04-16T03:31:40.430Z,849.39
2023-04-16T03:32:40.421Z,849.43
2023-04-16T03:33:40.341Z,849.40
2023-04-16T03:34:40.386Z,849.40
2023-04-16T03:35:40.312Z,849.42
2023-04-16T03:36:40.309Z,849.43
2023-04-16T03:37:40.296Z,849.48
2023-04-16T03:38:40.284Z,849.52
2023-04-16T03:39:40.288Z,849.46
2023-04-16T03:40:40.349Z,849.49
2023-04-16T03:41:40.272Z,849.45
2023-04-16T03:42:40.242Z,849.41
2023-04-16T03:43:40.230Z,849.42
2023-04-16T03:44:40.222Z,849.43
2023-04-16T03:45:40.209Z,849.42
2023-04-16T03:46:40.264Z,849.46
2023-04-16T03:47:40.243Z,849.48
2023-04-16T03:48:40.200Z,849.48
2023-04-16T03:49:40.164Z,849.48
2023-04-16T03:50:40.171Z,849.51
2023-04-16T03:51:40.153Z,849.42
2023-04-16T03:52:40.166Z,849.45
2023-04-16T03:53:40.124Z,849.47
2023-04-16T03:54:40.159Z,849.54
2023-04-16T03:55:40.120Z,849.47
2023-04-16T03:56:40.112Z,849.51
2023-04-16T03:57:40.098Z,849.52
2023-04-16T03:58:40.114Z,849.53
2023-04-16T03:59:40.057Z,849.55
2023-04-16T04:00:40.066Z,849.57
2023-04-16T04:01:40.124Z,849.57
2023-04-16T04:02:40.102Z,849.56
2023-04-16T04:03:40.336Z,849.57
2023-04-16T04:04:40.145Z,849.60
2023-04-16T04:05:40.000Z,849.55
2023-04-16T04:06:39.989Z,849.60
2023-04-16T04:07:39.991Z,849.59
2023-04-16T04:08:39.971Z,849.58
2023-04-16T04:09:39.966Z,849.57
2023-04-16T04:10:39.989Z,849.60
2023-04-16T04:11:39.954Z,849.58
2023-04-16T04:12:39.937Z,849.62
2023-04-16T04:13:39.914Z,849.65
2023-04-16T04:14:39.971Z,849.63
2023-04-16T04:15:39.913Z,849.64
2023-04-16T04:16:40.029Z,849.64
2023-04-16T04:17:39.961Z,849.62
2023-04-16T04:18:39.861Z,849.63
2023-04-16T04:19:47.115Z,849.66
2023-04-16T04:20:40.883Z,849.68
2023-04-16T04:21:39.826Z,849.72
2023-04-16T04:22:39.846Z,849.70
2023-04-16T04:23:39.804Z,849.75
2023-04-16T04:24:39.802Z,849.75
2023-04-16T04:25:39.782Z,849.77
2023-04-16T04:26:39.787Z,849.73
2023-04-16T04:27:39.777Z,849.79
2023-04-16T04:28:39.782Z,849.75
2023-04-16T04:29:39.743Z,849.74
2023-04-16T04:30:39.731Z,849.75
2023-04-16T04:31:39.813Z,849.77
2023-04-16T04:32:39.741Z,849.75
2023-04-16T04:33:39.719Z,849.76
2023-04-16T04:34:39.715Z,849.73
2023-04-16T04:35:39.692Z,849.74
2023-04-16T04:36:39.677Z,849.80
2023-04-16T04:37:39.656Z,849.82
2023-04-16T04:38:39.641Z,849.80
2023-04-16T04:39:39.634Z,849.84
2023-04-16T04:40:39.650Z,849.85
2023-04-16T04:41:39.621Z,849.85
2023-04-16T04:42:39.601Z,849.83
2023-04-16T04:43:39.614Z,849.88
2023-04-16T04:44:39.576Z,849.87
2023-04-16T04:45:39.607Z,849.87
2023-04-16T04:46:39.586Z,849.95
2023-04-16T04:47:39.620Z,849.89
2023-04-16T04:48:39.535Z,849.92
2023-04-16T04:49:39.528Z,849.92
2023-04-16T04:50:39.519Z,849.92
2023-04-16T04:51:39.509Z,849.93
2023-04-16T04:52:39.559Z,849.97
2023-04-16T04:53:39.482Z,849.96
2023-04-16T04:54:39.471Z,849.97
2023-04-16T04:55:39.468Z,850.01
2023-04-16T04:56:39.452Z,850.00
2023-04-16T04:57:39.442Z,850.00
2023-04-16T04:58:39.488Z,849.99
2023-04-16T04:59:39.440Z,849.98
2023-04-16T05:00:39.424Z,849.94
2023-04-16T05:01:39.535Z,849.99
2023-04-16T05:02:39.452Z,850.01
2023-04-16T05:03:39.498Z,850.00
2023-04-16T05:04:39.428Z,849.98
2023-04-16T05:05:39.357Z,850.02
2023-04-16T05:06:39.360Z,850.00
2023-04-16T05:07:39.340Z,850.02
2023-04-16T05:08:39.322Z,850.02
2023-04-16T05:09:39.315Z,850.03
2023-04-16T05:10:39.327Z,850.06
2023-04-16T05:11:39.306Z,850.05
2023-04-16T05:12:39.301Z,850.08
2023-04-16T05:13:39.274Z,850.09
2023-04-16T05:14:39.261Z,850.04
2023-04-16T05:15:39.272Z,850.05
2023-04-16T05:16:39.288Z,850.10
2023-04-16T05:17:39.299Z,850.11
2023-04-16T05:18:39.240Z,850.11
2023-04-16T05:19:39.210Z,850.14
2023-04-16T05:20:39.207Z,850.14
2023-04-16T05:21:39.190Z,850.13
2023-04-16T05:22:39.201Z,850.13
2023-04-16T05:23:39.169Z,850.15
2023-04-16T05:24:39.181Z,850.12
2023-04-16T05:25:39.148Z,850.11
2023-04-16T05:26:39.135Z,850.17
2023-04-16T05:27:39.132Z,850.11
2023-04-16T05:28:39.158Z,850.16
2023-04-16T05:29:39.112Z,850.14
2023-04-16T05:30:39.114Z,850.21
2023-04-16T05:31:39.115Z,850.20
2023-04-16T05:32:39.098Z,850.21
2023-04-16T05:33:39.060Z,850.18
2023-04-16T05:34:39.098Z,850.20
2023-04-16T05:35:39.041Z,850.22
2023-04-16T05:36:39.029Z,850.21
2023-04-16T05:37:39.017Z,850.22
2023-04-16T05:38:39.002Z,850.22
2023-04-16T05:39:38.995Z,850.25
2023-04-16T05:40:39.026Z,850.23
2023-04-16T05:41:38.983Z,850.28
2023-04-16T05:42:38.958Z,850.27
2023-04-16T05:43:38.950Z,850.33
2023-04-16T05:44:38.937Z,850.29
2023-04-16T05:45:38.927Z,850.28
2023-04-16T05:46:39.110Z,850.28
2023-04-16T05:47:38.948Z,850.29
2023-04-16T05:48:38.895Z,850.26
2023-04-16T05:49:38.887Z,850.29
2023-04-16T05:50:38.884Z,850.33
2023-04-16T05:51:38.860Z,850.31
2023-04-16T05:52:38.904Z,850.33
2023-04-16T05:53:38.843Z,850.29
2023-04-16T05:54:38.884Z,850.30
2023-04-16T05:55:38.861Z,850.31
2023-04-16T05:56:38.811Z,850.31
2023-04-16T05:57:38.798Z,850.30
2023-04-16T05:58:38.814Z,850.32
2023-04-16T05:59:38.782Z,850.34
2023-04-16T06:00:38.772Z,850.36
2023-04-16T06:01:38.760Z,850.34
2023-04-16T06:02:38.888Z,850.34
2023-04-16T06:03:40.305Z,850.35
2023-04-16T06:04:38.770Z,850.39
2023-04-16T06:05:38.763Z,850.40
2023-04-16T06:06:38.749Z,850.41
2023-04-16T06:07:38.694Z,850.37
2023-04-16T06:08:38.709Z,850.38
2023-04-16T06:09:38.674Z,850.35
2023-04-16T06:10:38.686Z,850.41
2023-04-16T06:11:38.656Z,850.38
2023-04-16T06:12:38.636Z,850.37
2023-04-16T06:13:38.630Z,850.40
2023-04-16T06:14:38.627Z,850.37
2023-04-16T06:15:38.662Z,850.33
2023-04-16T06:16:38.617Z,850.29
2023-04-16T06:17:38.638Z,850.39
2023-04-16T06:18:38.618Z,850.37
2023-04-16T06:19:38.604Z,850.37
2023-04-16T06:20:38.567Z,850.38
2023-04-16T06:21:38.570Z,850.41
2023-04-16T06:22:38.596Z,850.39
2023-04-16T06:23:38.591Z,850.35
2023-04-16T06:24:38.536Z,850.38
2023-04-16T06:25:38.520Z,850.37
2023-04-16T06:26:38.547Z,850.41
2023-04-16T06:27:38.500Z,850.37
2023-04-16T06:28:38.496Z,850.44
2023-04-16T06:29:41.543Z,850.42
2023-04-16T06:30:38.446Z,850.40
2023-04-16T06:31:38.477Z,850.41
2023-04-16T06:32:38.490Z,850.39
2023-04-16T06:33:38.426Z,850.45
2023-04-16T06:34:38.440Z,850.45
2023-04-16T06:35:38.414Z,850.44
2023-04-16T06:36:38.393Z,850.41
2023-04-16T06:37:38.376Z,850.46
2023-04-16T06:38:38.361Z,850.43
2023-04-16T06:39:38.367Z,850.44
2023-04-16T06:40:38.376Z,850.47
2023-04-16T06:41:38.328Z,850.45
2023-04-16T06:42:38.335Z,850.50
2023-04-16T06:43:38.311Z,850.46
2023-04-16T06:44:38.303Z,850.47
2023-04-16T06:45:38.293Z,850.49
2023-04-16T06:46:38.342Z,850.52
2023-04-16T06:47:38.318Z,850.51
2023-04-16T06:48:38.261Z,850.50
2023-04-16T06:49:38.252Z,850.53
2023-04-16T06:50:38.240Z,850.52
2023-04-16T06:51:38.251Z,850.54
2023-04-16T06:52:38.254Z,850.51
2023-04-16T06:53:38.213Z,850.49
2023-04-16T06:54:38.188Z,850.47
2023-04-16T06:55:38.189Z,850.48
2023-04-16T06:56:38.171Z,850.51
2023-04-16T06:57:38.161Z,850.48
2023-04-16T06:58:38.184Z,850.54
2023-04-16T06:59:38.149Z,850.54
2023-04-16T07:00:38.156Z,850.49
2023-04-16T07:01:38.130Z,850.54
2023-04-16T07:02:38.279Z,850.51
2023-04-16T07:03:38.256Z,850.49
2023-04-16T07:04:38.101Z,850.52
2023-04-16T07:05:38.075Z,850.53
2023-04-16T07:06:38.065Z,850.54
2023-04-16T07:07:38.086Z,850.52
2023-04-16T07:08:38.041Z,850.51
2023-04-16T07:09:38.057Z,850.48
2023-04-16T07:10:38.052Z,850.48
2023-04-16T07:11:38.015Z,850.49
2023-04-16T07:12:38.010Z,850.55
2023-04-16T07:13:37.989Z,850.54
2023-04-16T07:14:38.006Z,850.55
2023-04-16T07:15:37.970Z,850.52
2023-04-16T07:16:38.161Z,850.55
2023-04-16T07:17:38.030Z,850.58
2023-04-16T07:18:37.962Z,850.52
2023-04-16T07:19:37.931Z,850.55
2023-04-16T07:20:37.917Z,850.57
2023-04-16T07:21:37.907Z,850.58
2023-04-16T07:22:37.917Z,850.64
2023-04-16T07:23:37.905Z,850.62
2023-04-16T07:24:37.887Z,850.66
2023-04-16T07:25:37.873Z,850.61
2023-04-16T07:26:37.852Z,850.65
2023-04-16T07:27:37.850Z,850.66
2023-04-16T07:28:37.916Z,850.71
2023-04-16T07:29:37.822Z,850.66
2023-04-16T07:30:37.822Z,850.66
2023-04-16T07:31:37.860Z,850.61
2023-04-16T07:32:37.920Z,850.60
2023-04-16T07:33:37.785Z,850.65
2023-04-16T07:34:37.799Z,850.67
2023-04-16T07:35:37.768Z,850.64
2023-04-16T07:36:37.742Z,850.68
2023-04-16T07:37:37.737Z,850.68
2023-04-16T07:38:37.719Z,850.70
2023-04-16T07:39:37.742Z,850.69
2023-04-16T07:40:37.735Z,850.72
2023-04-16T07:41:37.701Z,850.67
2023-04-16T07:42:37.685Z,850.71
2023-04-16T07:43:37.688Z,850.69
2023-04-16T07:44:37.669Z,850.75
2023-04-16T07:45:37.750Z,850.70
2023-04-16T07:46:46.391Z,850.73
2023-04-16T07:47:38.649Z,850.81
2023-04-16T07:48:37.620Z,850.79
2023-04-16T07:49:37.609Z,850.77
2023-04-16T07:50:37.594Z,850.77
2023-04-16T07:51:37.584Z,850.78
2023-04-16T07:52:37.632Z,850.80
2023-04-16T07:53:37.570Z,850.80
2023-04-16T07:54:37.551Z,850.84
2023-04-16T07:55:37.556Z,850.85
2023-04-16T07:56:37.533Z,850.88
2023-04-16T07:57:37.535Z,850.86
2023-04-16T07:58:37.545Z,850.85
2023-04-16T07:59:37.498Z,850.87
2023-04-16T08:00:37.486Z,850.83
2023-04-16T08:01:37.491Z,850.86
2023-04-16T08:02:37.535Z,850.85
2023-04-16T08:03:37.799Z,850.88
2023-04-16T08:04:37.781Z,850.87
2023-04-16T08:05:37.436Z,850.92
2023-04-16T08:06:37.423Z,850.88
2023-04-16T08:07:37.422Z,850.91
2023-04-16T08:08:37.399Z,850.92
2023-04-16T08:09:37.393Z,850.91
2023-04-16T08:10:37.400Z,850.89
2023-04-16T08:11:37.389Z,850.96
2023-04-16T08:12:37.355Z,850.91
2023-04-16T08:13:37.364Z,850.92
2023-04-16T08:14:37.345Z,850.94
2023-04-16T08:15:37.354Z,850.98
2023-04-16T08:16:37.369Z,850.97
2023-04-16T08:17:37.390Z,850.98
2023-04-16T08:18:37.293Z,850.98
2023-04-16T08:19:37.311Z,851.01
2023-04-16T08:20:37.270Z,851.03
2023-04-16T08:21:37.264Z,851.01
2023-04-16T08:22:37.294Z,851.09
2023-04-16T08:23:37.250Z,851.06
2023-04-16T08:24:37.233Z,851.06
2023-04-16T08:25:37.220Z,851.11
2023-04-16T08:26:37.207Z,851.07
2023-04-16T08:27:37.347Z,851.13
2023-04-16T08:28:37.230Z,851.12
2023-04-16T08:29:37.185Z,851.08
2023-04-16T08:30:37.165Z,851.08
2023-04-16T08:31:37.195Z,851.13
2023-04-16T08:32:37.206Z,851.18
2023-04-16T08:33:37.131Z,851.18
2023-04-16T08:34:37.166Z,851.16
2023-04-16T08:35:37.117Z,851.15
2023-04-16T08:36:37.101Z,851.20
2023-04-16T08:37:37.107Z,851.20
2023-04-16T08:38:37.081Z,851.18
2023-04-16T08:39:37.065Z,851.14
2023-04-16T08:40:37.116Z,851.12
2023-04-16T08:41:37.058Z,851.19
2023-04-16T08:42:37.068Z,851.13
2023-04-16T08:43:37.056Z,851.10
2023-04-16T08:44:37.026Z,851.15
2023-04-16T08:45:37.013Z,851.17
2023-04-16T08:46:37.053Z,851.16
2023-04-16T08:47:37.085Z,851.18
2023-04-16T08:48:36.994Z,851.16
2023-04-16T08:49:36.968Z,851.17
2023-04-16T08:50:36.948Z,851.21
2023-04-16T08:51:36.938Z,851.18
2023-04-16T08:52:36.952Z,851.18
2023-04-16T08:53:36.921Z,851.19
2023-04-16T08:54:36.926Z,851.17
2023-04-16T08:55:36.900Z,851.17
2023-04-16T08:56:36.883Z,851.22
2023-04-16T08:57:36.875Z,851.20
2023-04-16T08:58:36.881Z,851.18
2023-04-16T08:59:36.871Z,851.19
2023-04-16T09:00:36.863Z,851.19
2023-04-16T09:01:36.836Z,851.20
2023-04-16T09:02:36.956Z,851.23
2023-04-16T09:03:37.062Z,851.23
2023-04-16T09:04:36.873Z,851.26
2023-04-16T09:05:36.812Z,851.30
2023-04-16T09:06:36.809Z,851.28
2023-04-16T09:07:36.771Z,851.25
2023-04-16T09:08:36.761Z,851.29
2023-04-16T09:09:36.747Z,851.29
2023-04-16T09:10:36.775Z,851.29
2023-04-16T09:11:36.737Z,851.28
2023-04-16T09:12:36.741Z,851.30
2023-04-16T09:13:36.701Z,851.35
2023-04-16T09:14:36.688Z,851.30
2023-04-16T09:15:36.732Z,851.33
2023-04-16T09:16:36.711Z,851.32
2023-04-16T09:17:36.720Z,851.32
2023-04-16T09:18:36.682Z,851.37
2023-04-16T09:19:36.661Z,851.37
2023-04-16T09:20:36.631Z,851.34
2023-04-16T09:21:36.615Z,851.38
2023-04-16T09:22:36.651Z,851.34
2023-04-16T09:23:36.615Z,851.35
2023-04-16T09:24:36.591Z,851.34
2023-04-16T09:25:36.580Z,851.39
2023-04-16T09:26:36.558Z,851.38
2023-04-16T09:27:36.604Z,851.36
2023-04-16T09:28:36.552Z,851.37
2023-04-16T09:29:36.549Z,851.41
2023-04-16T09:30:36.517Z,851.40
2023-04-16T09:31:36.580Z,851.45
2023-04-16T09:32:36.556Z,851.46
2023-04-16T09:33:36.533Z,851.45
2023-04-16T09:34:36.513Z,851.45
2023-04-16T09:35:36.477Z,851.44
2023-04-16T09:36:36.463Z,851.48
2023-04-16T09:37:36.444Z,851.51
2023-04-16T09:38:36.432Z,851.48
2023-04-16T09:39:36.489Z,851.53
2023-04-16T09:40:36.447Z,851.52
2023-04-16T09:41:36.426Z,851.55
2023-04-16T09:42:36.407Z,851.56
2023-04-16T09:43:36.395Z,851.57
2023-04-16T09:44:36.370Z,851.63
2023-04-16T09:45:36.400Z,851.57
2023-04-16T09:46:36.408Z,851.59
2023-04-16T09:47:36.402Z,851.58
2023-04-16T09:48:36.325Z,851.60
2023-04-16T09:49:36.320Z,851.57
2023-04-16T09:50:36.309Z,851.54
2023-04-16T09:51:36.313Z,851.49
2023-04-16T09:52:36.291Z,851.51
2023-04-16T09:53:36.312Z,851.54
2023-04-16T09:54:36.262Z,851.49
2023-04-16T09:55:36.258Z,851.55
2023-04-16T09:56:36.256Z,851.51
2023-04-16T09:57:36.254Z,851.49
2023-04-16T09:58:36.254Z,851.53
2023-04-16T09:59:36.218Z,851.54
2023-04-16T10:00:36.198Z,851.61
2023-04-16T10:01:37.196Z,851.54
2023-04-16T10:02:36.266Z,851.57
2023-04-16T10:03:36.480Z,851.55
2023-04-16T10:04:36.199Z,851.60
2023-04-16T10:05:36.164Z,851.63
2023-04-16T10:06:36.159Z,851.65
2023-04-16T10:07:36.134Z,851.68
2023-04-16T10:08:36.111Z,851.64
2023-04-16T10:09:36.135Z,851.64
2023-04-16T10:10:36.100Z,851.67
2023-04-16T10:11:36.091Z,851.67
2023-04-16T10:12:36.076Z,851.63
2023-04-16T10:13:36.111Z,851.68
2023-04-16T10:14:36.069Z,851.68
2023-04-16T10:15:36.070Z,851.69
2023-04-16T10:16:36.065Z,851.70
2023-04-16T10:17:36.061Z,851.70
2023-04-16T10:18:36.006Z,851.64
2023-04-16T10:19:36.032Z,851.63
2023-04-16T10:20:35.982Z,851.58
2023-04-16T10:21:36.016Z,851.65
2023-04-16T10:22:35.966Z,851.61
2023-04-16T10:23:35.954Z,851.66
2023-04-16T10:24:35.953Z,851.70
2023-04-16T10:25:35.934Z,851.64
2023-04-16T10:26:35.937Z,851.67
2023-04-16T10:27:35.940Z,851.65
2023-04-16T10:28:35.896Z,851.68
2023-04-16T10:29:35.903Z,851.68
2023-04-16T10:30:35.921Z,851.64
2023-04-16T10:31:35.869Z,851.68
2023-04-16T10:32:35.877Z,851.67
2023-04-16T10:33:35.876Z,851.70
2023-04-16T10:34:35.855Z,851.69
2023-04-16T10:35:35.846Z,851.63
2023-04-16T10:36:35.811Z,851.69
2023-04-16T10:37:35.804Z,851.63
2023-04-16T10:38:35.802Z,851.62
2023-04-16T10:39:35.812Z,851.66
2023-04-16T10:40:35.771Z,851.63
2023-04-16T10:41:35.769Z,851.62
2023-04-16T10:42:35.748Z,851.66
2023-04-16T10:43:35.755Z,851.65
2023-04-16T10:44:35.727Z,851.65
2023-04-16T10:45:35.748Z,851.68
2023-04-16T10:46:35.812Z,851.66
2023-04-16T10:47:35.742Z,851.64
2023-04-16T10:48:48.648Z,851.69
2023-04-16T10:49:36.686Z,851.72
2023-04-16T10:50:35.678Z,851.68
2023-04-16T10:51:35.682Z,851.72
2023-04-16T10:52:35.649Z,851.70
2023-04-16T10:53:35.639Z,851.71
2023-04-16T10:54:35.629Z,851.73
2023-04-16T10:55:35.622Z,851.71
2023-04-16T10:56:35.631Z,851.68
2023-04-16T10:57:35.600Z,851.68
2023-04-16T10:58:35.573Z,851.69
2023-04-16T10:59:35.564Z,851.75
2023-04-16T11:00:35.559Z,851.76
2023-04-16T11:01:35.646Z,851.73
2023-04-16T11:02:36.115Z,851.73
2023-04-16T11:03:35.601Z,851.76
2023-04-16T11:04:35.600Z,851.73
2023-04-16T11:05:35.505Z,851.72
2023-04-16T11:06:35.486Z,851.71
2023-04-16T11:07:35.527Z,851.74
2023-04-16T11:08:44.300Z,851.72
2023-04-16T11:09:36.465Z,851.68
2023-04-16T11:10:35.488Z,851.68
2023-04-16T11:11:35.434Z,851.68
2023-04-16T11:12:35.432Z,851.66
2023-04-16T11:13:35.459Z,851.69
2023-04-16T11:14:35.398Z,851.70
2023-04-16T11:15:35.431Z,851.68
2023-04-16T11:16:35.388Z,851.70
2023-04-16T11:17:35.424Z,851.73
2023-04-16T11:18:35.362Z,851.67
2023-04-16T11:19:35.348Z,851.71
2023-04-16T11:20:35.332Z,851.76
2023-04-16T11:21:35.379Z,851.69
2023-04-16T11:22:35.314Z,851.71
2023-04-16T11:23:35.347Z,851.69
2023-04-16T11:24:35.290Z,851.69
2023-04-16T11:25:35.289Z,851.71
2023-04-16T11:26:35.297Z,851.76
2023-04-16T11:27:35.282Z,851.70
2023-04-16T11:28:35.249Z,851.69
2023-04-16T11:29:35.242Z,851.75
2023-04-16T11:30:35.230Z,851.76
2023-04-16T11:31:35.267Z,851.77
2023-04-16T11:32:35.250Z,851.73
2023-04-16T11:33:35.219Z,851.76
2023-04-16T11:34:35.188Z,851.72
2023-04-16T11:35:35.176Z,851.75
2023-04-16T11:36:35.163Z,851.76
2023-04-16T11:37:35.160Z,851.71
2023-04-16T11:38:35.152Z,851.71
2023-04-16T11:39:35.183Z,851.74
2023-04-16T11:40:35.120Z,851.74
2023-04-16T11:41:35.114Z,851.75
2023-04-16T11:42:35.126Z,851.73
2023-04-16T11:43:35.101Z,851.73
2023-04-16T11:44:35.083Z,851.73
2023-04-16T11:45:35.090Z,851.68
2023-04-16T11:46:35.098Z,851.69
2023-04-16T11:47:35.125Z,851.67
2023-04-16T11:48:35.041Z,851.72
2023-04-16T11:49:35.040Z,851.66
2023-04-16T11:50:35.013Z,851.72
2023-04-16T11:51:35.031Z,851.70
2023-04-16T11:52:34.991Z,851.75
2023-04-16T11:53:35.033Z,851.76
2023-04-16T11:54:34.972Z,851.78
2023-04-16T11:55:34.996Z,851.80
2023-04-16T11:56:34.950Z,851.77
2023-04-16T11:57:34.965Z,851.78
2023-04-16T11:58:34.927Z,851.76
2023-04-16T11:59:34.929Z,851.72
2023-04-16T12:00:34.920Z,851.81
2023-04-16T12:01:34.898Z,851.77
2023-04-16T12:02:35.009Z,851.78
2023-04-16T12:03:35.019Z,851.80
2023-04-16T12:04:34.969Z,851.77
2023-04-16T12:05:34.879Z,851.78
2023-04-16T12:06:34.845Z,851.77
2023-04-16T12:07:34.837Z,851.76
2023-04-16T12:08:34.821Z,851.83
2023-04-16T12:09:36.024Z,851.79
2023-04-16T12:10:34.805Z,851.83
2023-04-16T12:11:34.818Z,851.86
2023-04-16T12:12:34.781Z,851.82
2023-04-16T12:13:34.785Z,851.79
2023-04-16T12:14:34.755Z,851.82
2023-04-16T12:15:34.782Z,851.81
2023-04-16T12:16:35.892Z,851.79
2023-04-16T12:17:34.770Z,851.82
2023-04-16T12:18:34.725Z,851.78
2023-04-16T12:19:34.705Z,851.79
2023-04-16T12:20:34.701Z,851.83
2023-04-16T12:21:34.723Z,851.82
2023-04-16T12:22:36.635Z,851.79
2023-04-16T12:23:34.668Z,851.77
2023-04-16T12:24:34.650Z,851.84
2023-04-16T12:25:34.646Z,851.79
2023-04-16T12:26:34.628Z,851.79
2023-04-16T12:27:34.681Z,851.83
2023-04-16T12:28:34.613Z,851.84